Terminal Aerodrome Forecast
Issued by NWS

Current Version | Previous Version | Text Only | Print | Product List | Glossary On
Versions: 1 2 3 4 5 6 7 8 9 10 11 12 13
000
FTUS43 KAPX 212320
TAFMBL
TAF
KMBL 212320Z 2200/2224 20004KT P6SM VCSH SCT040 BKN080
     FM220400 21004KT 3SM SHRA BR VCTS SCT025 OVC035CB
     FM221000 24008KT P6SM -SHRA SCT015 OVC025
     FM221300 28010KT P6SM VCSH OVC015
     FM221600 31013G22KT P6SM BKN040=

USA.gov is the U.S. government's official web portal to all federal, state and local government web resources and services.